Time;durP1;ratioP1;P1;durP2;ratioP2;P2;SDS_P1;SDS_P2;PMS_P1;PMS_P2;Temp;Humidity;BMP_temperature;BMP_pressure;BME280_temperature;BME280_humidity;BME280_pressure;Samples;Min_cycle;Max_cycle;Signal;HPM_P1;HPM_P2
2022/07/26 00:02:23;;;;;;;3.20;0.90;;;21.80;79.20;;;22.28;68.12;100753.81;5147380;28;20078;-72
2022/07/26 00:04:55;;;;;;;0.93;0.60;;;21.80;79.90;;;22.26;68.42;100747.66;5146185;28;20051;-72
2022/07/26 00:07:29;;;;;;;1.65;0.70;;;21.80;79.40;;;22.21;68.62;100749.50;5147088;28;20078;-72
2022/07/26 00:10:04;;;;;;;2.40;0.73;;;21.80;79.80;;;22.15;68.70;100752.22;5147293;28;20047;-72
2022/07/26 00:12:36;;;;;;;0.88;0.60;;;21.70;79.90;;;22.14;69.00;100750.47;5147111;28;20046;-72
2022/07/26 00:15:11;;;;;;;1.48;0.60;;;21.70;80.10;;;22.11;69.23;100748.75;5147254;28;20042;-72
2022/07/26 00:17:43;;;;;;;1.15;0.57;;;21.60;80.30;;;22.07;69.53;100749.66;5146207;28;20531;-72
2022/07/26 00:20:15;;;;;;;2.30;0.77;;;21.60;80.60;;;22.05;69.85;100753.22;5147170;28;20043;-72
2022/07/26 00:22:48;;;;;;;1.52;0.70;;;21.60;81.00;;;22.02;70.05;100747.94;5139057;28;20043;-72
2022/07/26 00:25:21;;;;;;;1.50;0.90;;;21.50;81.10;;;21.96;70.39;100748.91;5139249;28;20414;-73
2022/07/26 00:27:53;;;;;;;2.00;0.70;;;21.50;81.50;;;21.89;70.68;100749.88;5146887;28;20042;-72
2022/07/26 00:30:25;;;;;;;2.13;0.70;;;21.50;81.80;;;21.81;71.16;100752.63;5146847;28;20495;-73
2022/07/26 00:32:57;;;;;;;3.90;0.70;;;21.40;82.20;;;21.75;71.56;100747.41;5146767;28;20047;-72
2022/07/26 00:35:29;;;;;;;1.83;0.95;;;21.30;82.60;;;21.71;71.88;100750.09;5146874;28;20047;-72
2022/07/26 00:38:03;;;;;;;2.45;0.70;;;21.30;82.90;;;21.67;72.21;100749.25;5146624;28;20579;-72
2022/07/26 00:40:36;;;;;;;2.40;0.77;;;21.30;84.00;;;21.66;72.48;100752.81;5146925;28;20053;-72
2022/07/26 00:43:08;;;;;;;1.60;0.70;;;21.20;84.20;;;21.63;72.79;100744.88;5146787;28;20049;-72
2022/07/26 00:45:40;;;;;;;1.52;0.60;;;21.20;84.00;;;21.62;73.01;100761.69;5146602;28;20050;-73
2022/07/26 00:48:12;;;;;;;1.27;0.88;;;21.10;84.20;;;21.60;73.26;100758.19;5146682;28;20043;-72
2022/07/26 00:50:45;;;;;;;0.85;0.60;;;21.10;84.50;;;21.59;73.58;100762.63;5146438;28;20117;-72
2022/07/26 00:53:21;;;;;;;2.38;0.80;;;21.10;84.90;;;21.59;73.88;100756.44;5146516;28;20053;-73
2022/07/26 00:55:53;;;;;;;1.15;0.65;;;21.10;85.20;;;21.59;74.26;100753.78;5146505;28;20049;-73
2022/07/26 00:58:25;;;;;;;0.95;0.80;;;21.10;85.50;;;21.58;74.14;100773.22;5146100;28;20080;-72
2022/07/26 01:00:57;;;;;;;2.53;1.00;;;21.10;85.70;;;21.54;74.59;100766.22;5145958;28;20066;-73
2022/07/26 01:03:30;;;;;;;2.05;0.82;;;21.10;86.00;;;21.47;74.53;100769.81;5146467;28;20126;-72
2022/07/26 01:06:02;;;;;;;3.38;0.80;;;21.00;86.10;;;21.40;75.12;100767.22;5146031;28;20039;-72
2022/07/26 01:08:36;;;;;;;2.53;0.70;;;21.00;86.60;;;21.36;75.29;100770.78;5146026;28;20046;-72
2022/07/26 01:11:08;;;;;;;3.78;1.23;;;20.90;86.80;;;21.31;75.53;100772.59;5145898;28;20054;-72
2022/07/26 01:13:47;;;;;;;1.27;0.70;;;20.90;87.10;;;21.30;75.73;100770.84;5144811;28;20046;-72
2022/07/26 01:16:19;;;;;;;0.60;0.60;;;20.80;87.50;;;21.28;75.79;100777.94;5146071;28;20702;-71
2022/07/26 01:18:51;;;;;;;1.65;0.80;;;20.80;87.70;;;21.27;75.93;100765.56;5145757;28;20057;-72
2022/07/26 01:21:29;;;;;;;3.00;0.93;;;20.80;88.00;;;21.30;76.14;100768.19;5145688;28;20057;-72
2022/07/26 01:24:02;;;;;;;1.20;0.70;;;20.80;88.10;;;21.29;76.08;100769.09;5146167;28;20047;-72
2022/07/26 01:26:34;;;;;;;4.03;0.77;;;20.80;88.40;;;21.28;76.40;100767.34;5146136;28;20042;-73
2022/07/26 01:29:06;;;;;;;2.97;0.80;;;20.80;88.70;;;21.27;76.75;100770.88;5145520;28;20050;-72
2022/07/26 01:31:39;;;;;;;1.83;0.70;;;20.80;89.20;;;21.27;77.07;100775.28;5145726;28;20053;-72
2022/07/26 01:34:11;;;;;;;1.45;0.80;;;20.80;89.60;;;21.25;77.52;100775.28;5145748;28;20130;-72
2022/07/26 01:36:45;;;;;;;0.98;0.60;;;20.80;90.00;;;21.24;77.69;100776.19;5145669;28;20122;-72
2022/07/26 01:39:17;;;;;;;1.23;0.70;;;20.70;90.10;;;21.22;77.81;100775.31;5145504;28;20054;-73
2022/07/26 01:41:49;;;;;;;0.50;0.50;;;20.70;90.30;;;21.19;77.97;100783.31;5145388;28;20047;-73
2022/07/26 01:44:21;;;;;;;1.50;0.88;;;20.70;90.40;;;21.13;78.06;100783.38;5145557;28;20057;-72
2022/07/26 01:46:53;;;;;;;1.95;0.70;;;20.60;90.50;;;21.07;78.40;100794.03;5145555;28;20054;-72
2022/07/26 01:49:26;;;;;;;2.47;0.82;;;20.60;91.00;;;21.03;78.71;100787.84;5144194;28;20051;-73
2022/07/26 01:51:59;;;;;;;1.20;0.63;;;20.60;90.90;;;21.04;78.70;100786.06;5145604;28;20047;-72
2022/07/26 01:54:31;;;;;;;1.25;1.02;;;20.60;91.00;;;21.02;78.72;100786.09;5144100;28;20053;-73
2022/07/26 01:57:04;;;;;;;1.63;0.88;;;20.60;91.10;;;20.99;79.04;100787.88;5144309;28;20078;-72
2022/07/26 01:59:51;;;;;;;2.05;0.70;;;20.50;91.20;;;20.96;79.23;100791.44;5143407;28;20058;-73
2022/07/26 02:02:24;;;;;;;2.40;0.73;;;20.50;91.40;;;20.92;79.52;100791.47;5145458;28;20134;-72
2022/07/26 02:04:59;;;;;;;1.58;0.70;;;20.50;91.60;;;20.89;79.96;100794.16;5145312;28;20133;-73
2022/07/26 02:07:39;;;;;;;2.35;1.00;;;20.50;91.80;;;20.90;79.99;100795.91;5143801;28;20734;-72
2022/07/26 02:10:12;;;;;;;0.80;0.80;;;20.40;91.90;;;20.86;80.14;100790.66;5144293;28;20046;-72
2022/07/26 02:12:44;;;;;;;1.20;0.90;;;20.40;92.10;;;20.85;80.39;100793.28;5143851;28;20384;-73
2022/07/26 02:15:16;;;;;;;1.17;0.77;;;20.40;92.20;;;20.83;80.45;100800.38;5145105;28;20054;-72
2022/07/26 02:17:49;;;;;;;3.53;0.63;;;20.40;92.40;;;20.82;80.61;100799.50;5145155;28;20141;-72
2022/07/26 02:20:21;;;;;;;3.38;1.00;;;20.40;92.60;;;20.80;80.83;100801.28;5145094;28;20078;-73
2022/07/26 02:22:54;;;;;;;1.77;0.82;;;20.40;92.70;;;20.78;81.02;100802.16;5145088;28;20043;-72
2022/07/26 02:25:26;;;;;;;1.15;0.85;;;20.30;92.80;;;20.77;81.26;100805.72;5143950;28;20137;-72
2022/07/26 02:28:00;;;;;;;1.77;0.65;;;20.30;93.00;;;20.75;81.59;100805.72;5145061;28;20053;-72
2022/07/26 02:30:32;;;;;;;2.88;0.70;;;20.30;93.20;;;20.73;81.75;100810.13;5145197;28;20043;-72
2022/07/26 02:33:04;;;;;;;1.08;0.80;;;20.30;93.40;;;20.72;82.02;100810.16;5134685;28;20051;-72
2022/07/26 02:35:36;;;;;;;1.25;0.70;;;20.20;93.60;;;20.71;82.30;100808.41;5125134;28;20099;-72
2022/07/26 02:38:12;;;;;;;1.25;0.70;;;20.20;93.80;;;20.70;82.40;100812.81;5124742;28;20051;-72
2022/07/26 02:40:44;;;;;;;2.42;0.70;;;20.20;94.00;;;20.71;82.54;100811.06;5126385;28;20175;-71
2022/07/26 02:43:16;;;;;;;0.73;0.45;;;20.20;94.10;;;20.72;82.37;100813.69;5129169;28;20055;-72
2022/07/26 02:45:49;;;;;;;1.35;0.80;;;20.20;94.10;;;20.73;82.38;100818.09;5128988;29;20043;-74
2022/07/26 02:48:21;;;;;;;1.38;0.80;;;20.30;94.30;;;20.77;82.34;100821.59;5127448;29;20046;-72
2022/07/26 02:50:53;;;;;;;1.98;0.60;;;20.30;94.30;;;20.78;82.50;100828.66;5128746;28;20121;-72
2022/07/26 02:53:26;;;;;;;1.83;0.82;;;20.30;94.40;;;20.79;82.52;100831.28;5128962;29;20047;-73
2022/07/26 02:55:59;;;;;;;1.63;1.00;;;20.30;94.50;;;20.80;82.43;100835.72;5128801;28;20503;-72
2022/07/26 02:58:31;;;;;;;1.20;0.73;;;20.30;94.60;;;20.83;82.62;100826.88;5128600;28;20075;-72
2022/07/26 03:01:04;;;;;;;2.95;0.93;;;20.30;94.70;;;20.83;82.59;100826.88;5128679;28;20078;-72
2022/07/26 03:03:36;;;;;;;2.05;0.70;;;20.40;94.80;;;20.82;82.75;100826.00;5128856;29;20043;-73
2022/07/26 03:06:09;;;;;;;1.83;0.60;;;20.40;94.90;;;20.85;82.92;100828.59;5128571;29;20570;-73
2022/07/26 03:08:42;;;;;;;1.33;0.90;;;20.40;95.10;;;20.84;82.87;100829.50;5128363;29;20432;-73
2022/07/26 03:11:14;;;;;;;3.47;0.98;;;20.40;95.10;;;20.85;82.78;100825.06;5127339;28;20051;-73
2022/07/26 03:13:46;;;;;;;2.65;0.80;;;20.40;95.10;;;20.86;82.96;100825.09;5128469;29;20061;-73
2022/07/26 03:16:19;;;;;;;2.08;0.55;;;20.40;95.30;;;20.86;83.03;100827.75;5128297;29;20043;-73
2022/07/26 03:18:51;;;;;;;2.05;0.90;;;20.40;95.30;;;20.85;82.66;100830.38;5128089;29;20044;-73
2022/07/26 03:21:23;;;;;;;1.38;0.70;;;20.40;95.20;;;20.81;82.27;100831.31;5128531;28;20047;-73
2022/07/26 03:23:57;;;;;;;1.58;0.80;;;20.30;95.20;;;20.80;82.58;100827.78;5128436;29;20046;-72
2022/07/26 03:26:29;;;;;;;1.90;0.73;;;20.30;95.60;;;20.81;82.63;100824.25;5128338;29;20523;-72
2022/07/26 03:29:01;;;;;;;0.82;0.60;;;20.30;95.70;;;20.81;82.67;100829.53;5128053;29;20090;-72
2022/07/26 03:31:33;;;;;;;3.22;1.23;;;20.30;95.50;;;20.83;82.64;100827.75;5128230;28;20463;-72
2022/07/26 03:34:05;;;;;;;1.88;1.05;;;20.30;95.50;;;20.84;82.66;100829.50;5128147;29;20074;-72
2022/07/26 03:36:38;;;;;;;3.25;0.80;;;20.40;95.60;;;20.86;82.64;100830.41;5128090;29;20130;-72
2022/07/26 03:39:12;;;;;;;1.20;0.80;;;20.40;95.60;;;20.85;82.71;100833.91;5127762;29;20047;-73
2022/07/26 03:41:44;;;;;;;2.05;0.80;;;20.40;95.70;;;20.86;82.88;100832.13;5127894;28;20109;-73
2022/07/26 03:44:16;;;;;;;4.07;1.00;;;20.40;95.70;;;20.86;82.66;100837.44;5126810;29;20039;-72
2022/07/26 03:46:48;;;;;;;1.55;1.00;;;20.40;95.70;;;20.86;82.74;100832.13;5128182;29;20051;-72
2022/07/26 03:49:20;;;;;;;4.60;1.00;;;20.40;95.70;;;20.86;82.83;100834.78;5127458;29;20051;-73
2022/07/26 03:51:54;;;;;;;1.67;0.80;;;20.40;95.90;;;20.86;83.05;100841.00;5126478;28;20051;-72
2022/07/26 03:54:27;;;;;;;1.70;0.93;;;20.40;95.90;;;20.88;83.05;100840.97;5126558;29;20043;-72
2022/07/26 03:56:58;;;;;;;2.72;0.80;;;20.40;96.00;;;20.89;83.00;100841.84;5127569;29;20051;-73
2022/07/26 03:59:30;;;;;;;2.53;1.02;;;20.40;96.00;;;20.88;82.92;100843.63;5127482;29;20428;-73
2022/07/26 04:02:02;;;;;;;2.83;1.27;;;20.40;96.00;;;20.90;83.31;100854.19;5127539;28;20070;-72
2022/07/26 04:04:35;;;;;;;3.75;1.05;;;20.40;96.20;;;20.92;83.16;100849.75;5127651;29;20051;-72
2022/07/26 04:07:07;;;;;;;1.63;1.15;;;20.40;96.20;;;20.93;83.19;100849.78;5126405;29;20519;-72
2022/07/26 04:09:40;;;;;;;3.25;0.98;;;20.40;96.20;;;20.94;82.86;100850.66;5127381;29;20039;-73
2022/07/26 04:12:12;;;;;;;1.45;0.90;;;20.50;96.20;;;20.95;82.71;100852.41;5127263;28;20094;-72
2022/07/26 04:14:44;;;;;;;2.75;1.00;;;20.50;96.10;;;20.93;82.51;100860.38;5127349;29;20043;-73
2022/07/26 04:17:17;;;;;;;2.22;1.10;;;20.50;96.10;;;20.94;82.45;100855.94;5127210;29;20075;-73
2022/07/26 04:19:49;;;;;;;3.55;1.10;;;20.50;96.10;;;20.96;82.37;100859.47;5127232;29;20051;-72
2022/07/26 04:22:21;;;;;;;2.65;0.90;;;20.50;96.10;;;20.99;81.93;100859.41;5127212;28;20078;-72
2022/07/26 04:24:54;;;;;;;2.40;0.93;;;20.50;95.90;;;21.00;81.86;100855.91;5127149;29;20069;-73
2022/07/26 04:27:26;;;;;;;3.65;1.00;;;20.50;95.90;;;21.02;81.75;100862.06;5127092;28;20075;-72
2022/07/26 04:29:59;;;;;;;4.35;1.10;;;20.50;95.90;;;21.02;81.71;100864.72;5126913;29;20058;-73
2022/07/26 04:32:31;;;;;;;2.25;1.00;;;20.50;95.90;;;21.02;81.78;100862.94;5125837;28;20043;-72
2022/07/26 04:35:04;;;;;;;2.15;1.30;;;20.50;95.90;;;21.03;82.04;100867.34;5126934;29;20404;-72
2022/07/26 04:37:41;;;;;;;2.15;0.88;;;20.50;96.00;;;21.05;82.29;100864.69;5125463;29;20066;-73
2022/07/26 04:40:20;;;;;;;3.30;1.67;;;20.50;96.10;;;21.08;81.82;100872.63;5126827;29;20407;-71
2022/07/26 04:42:52;;;;;;;1.55;0.95;;;20.60;96.00;;;21.07;81.84;100869.09;5126552;28;20051;-72
2022/07/26 04:45:25;;;;;;;1.63;0.98;;;20.60;96.00;;;21.09;81.33;100866.44;5125621;29;20055;-72
2022/07/26 04:47:58;;;;;;;3.67;1.30;;;20.60;95.80;;;21.07;80.95;100868.22;5126763;29;20035;-72
2022/07/26 04:50:30;;;;;;;2.40;1.00;;;20.60;95.70;;;21.06;81.28;100869.09;5125361;29;20043;-72
2022/07/26 04:53:02;;;;;;;1.73;1.00;;;20.60;95.80;;;21.06;81.33;100870.00;5126676;28;20039;-72
2022/07/26 04:55:36;;;;;;;2.17;1.00;;;20.60;95.80;;;21.06;80.97;100870.00;5125495;29;20153;-72
2022/07/26 04:58:09;;;;;;;2.05;1.02;;;20.60;95.70;;;21.07;81.06;100865.56;5126477;28;20039;-73
2022/07/26 05:00:41;;;;;;;3.08;1.17;;;20.60;95.70;;;21.07;81.26;100863.81;5126562;28;20053;-72
2022/07/26 05:03:13;;;;;;;2.70;1.23;;;20.60;96.10;;;21.10;81.26;100868.19;5125228;28;20055;-72
2022/07/26 05:05:46;;;;;;;3.25;1.13;;;20.60;95.80;;;21.10;81.16;100865.53;5125077;29;20661;-72
2022/07/26 05:08:18;;;;;;;1.42;1.08;;;20.60;95.80;;;21.11;81.28;100872.59;5126125;28;20047;-72
2022/07/26 05:10:51;;;;;;;1.67;0.90;;;20.60;95.80;;;21.12;81.43;100869.94;5126683;28;20051;-72
2022/07/26 05:13:23;;;;;;;2.80;1.20;;;20.60;95.90;;;21.13;81.58;100873.47;5126377;28;20055;-72
2022/07/26 05:15:56;;;;;;;2.25;1.23;;;20.60;95.90;;;21.14;81.62;100867.28;5126062;29;20527;-73
2022/07/26 05:18:29;;;;;;;1.73;1.08;;;20.70;96.00;;;21.12;81.84;100867.28;5125741;29;20132;-72
2022/07/26 05:21:01;;;;;;;2.83;1.00;;;20.70;96.10;;;21.13;82.09;100868.19;5125843;28;20047;-72
2022/07/26 05:23:34;;;;;;;3.25;1.40;;;20.60;96.20;;;21.16;82.21;100860.19;5134934;28;20053;-72
2022/07/26 05:26:07;;;;;;;4.97;1.55;;;20.70;96.30;;;21.21;81.46;100871.66;5146283;28;20160;-72
2022/07/26 05:28:40;;;;;;;1.42;1.10;;;20.70;96.00;;;21.21;81.56;100876.06;5145014;28;20077;-72
2022/07/26 05:31:12;;;;;;;2.22;1.40;;;20.70;96.30;;;21.22;81.74;100870.75;5145276;28;20039;-72
2022/07/26 05:33:44;;;;;;;3.30;1.40;;;20.70;96.10;;;21.20;82.22;100863.72;5145452;28;20090;-72
2022/07/26 05:36:16;;;;;;;2.35;1.60;;;20.70;96.50;;;21.19;82.83;100868.13;5145645;28;20403;-72
2022/07/26 05:38:48;;;;;;;2.53;1.90;;;20.70;96.50;;;21.19;83.01;100873.44;5143819;28;20423;-72
2022/07/26 05:41:22;;;;;;;2.92;1.85;;;20.70;96.60;;;21.20;83.15;100864.59;5145294;28;20373;-71
2022/07/26 05:43:54;;;;;;;2.35;1.30;;;20.70;96.60;;;21.20;83.53;100874.31;5144775;28;20055;-72
2022/07/26 05:46:26;;;;;;;3.63;1.50;;;20.70;97.10;;;21.21;83.70;100876.94;5144318;28;20039;-72
2022/07/26 05:48:58;;;;;;;4.47;1.40;;;20.70;96.90;;;21.22;83.58;100877.81;5144935;28;20047;-72
2022/07/26 05:51:31;;;;;;;2.55;1.63;;;20.70;96.90;;;21.23;83.59;100874.28;5144763;28;20042;-72
2022/07/26 05:54:04;;;;;;;3.97;1.92;;;20.70;96.90;;;21.24;83.69;100873.38;5144272;28;20129;-72
2022/07/26 05:56:37;;;;;;;3.22;1.80;;;20.70;97.00;;;21.23;83.98;100874.28;5145142;28;20035;-72
2022/07/26 05:59:09;;;;;;;3.78;1.58;;;20.80;97.10;;;21.23;84.01;100875.16;5145229;28;20070;-71
2022/07/26 06:01:41;;;;;;;4.50;2.00;;;20.80;97.20;;;21.25;84.24;100868.06;5145323;28;20057;-71
2022/07/26 06:04:14;;;;;;;3.75;1.90;;;20.80;97.30;;;21.28;84.39;100881.34;5145385;28;20105;-70
2022/07/26 06:06:46;;;;;;;2.63;1.50;;;20.80;97.30;;;21.33;84.83;100883.97;5144069;28;20039;-70
2022/07/26 06:09:18;;;;;;;4.57;1.65;;;20.80;97.50;;;21.35;84.74;100883.06;5145262;28;20050;-70
2022/07/26 06:11:52;;;;;;;3.47;1.83;;;20.90;97.50;;;21.39;85.07;100883.91;5145237;28;20499;-70
2022/07/26 06:14:24;;;;;;;6.03;2.22;;;20.90;97.70;;;21.43;84.85;100884.75;5144517;28;20125;-71
2022/07/26 06:16:57;;;;;;;4.78;1.90;;;20.90;97.60;;;21.45;85.14;100888.28;5145344;28;20065;-71
2022/07/26 06:19:29;;;;;;;5.57;2.38;;;20.90;97.70;;;21.46;85.19;100885.63;5144371;28;20471;-71
2022/07/26 06:22:01;;;;;;;4.07;2.10;;;20.90;97.80;;;21.49;85.25;100887.34;5144893;28;20043;-71
2022/07/26 06:24:33;;;;;;;3.30;1.70;;;21.00;97.80;;;21.50;85.80;100894.41;5145073;28;20117;-56
2022/07/26 06:27:07;;;;;;;2.30;1.35;;;21.00;98.00;;;21.59;85.42;100897.00;5144148;28;20064;-55
2022/07/26 06:29:40;;;;;;;3.03;1.58;;;21.10;97.90;;;21.66;84.43;100901.38;5143850;28;20131;-55
2022/07/26 06:32:12;;;;;;;3.10;1.98;;;21.20;97.50;;;21.71;84.21;100896.88;5144765;28;20050;-58
2022/07/26 06:34:44;;;;;;;7.90;2.50;;;21.30;97.50;;;21.78;86.34;100901.25;5144337;28;20431;-55
2022/07/26 06:37:16;;;;;;;4.97;2.17;;;21.30;98.20;;;21.81;87.81;100911.81;5143639;28;20043;-55
2022/07/26 06:39:48;;;;;;;5.95;2.40;;;21.40;98.60;;;21.83;88.79;100912.69;5144217;28;20510;-56
2022/07/26 06:42:22;;;;;;;7.55;2.72;;;21.40;98.90;;;21.87;89.76;100910.88;5144122;28;20046;-56
2022/07/26 06:44:54;;;;;;;6.70;2.65;;;21.50;99.20;;;21.90;90.83;100909.06;5144118;28;20042;-55
2022/07/26 06:47:26;;;;;;;12.45;2.80;;;21.50;99.60;;;21.93;91.59;100916.13;5142726;28;20495;-55
2022/07/26 06:49:58;;;;;;;7.38;2.90;;;21.60;99.90;;;21.98;91.87;100913.44;5144713;28;20122;-55
2022/07/26 06:52:31;;;;;;;7.05;2.58;;;21.60;99.90;;;22.03;90.84;100922.22;5143955;28;20046;-54
2022/07/26 06:55:05;;;;;;;6.38;2.42;;;21.70;99.70;;;22.07;91.01;100922.19;5142705;28;20046;-55
2022/07/26 06:57:39;;;;;;;6.68;2.63;;;21.70;99.80;;;22.10;90.74;100923.94;5143603;28;20114;-55
2022/07/26 07:00:13;;;;;;;4.25;2.40;;;21.70;99.90;;;22.14;91.06;100923.03;5140739;28;20122;-55
2022/07/26 07:02:45;;;;;;;7.32;2.90;;;21.80;99.90;;;22.16;90.93;100918.56;5144057;28;20133;-56
2022/07/26 07:05:17;;;;;;;5.70;3.30;;;21.80;99.90;;;22.18;91.01;100928.31;5139036;28;20075;-55
2022/07/26 07:07:49;;;;;;;5.53;2.65;;;21.80;99.90;;;22.22;90.66;100929.13;5135913;28;20126;-56
2022/07/26 07:10:22;;;;;;;5.75;2.72;;;21.80;99.80;;;22.26;90.67;100927.34;5124733;29;20122;-56
2022/07/26 07:12:55;;;;;;;4.25;2.65;;;21.90;99.80;;;22.33;90.25;100927.25;5124663;28;20043;-56
2022/07/26 07:15:27;;;;;;;8.00;2.72;;;21.90;99.70;;;22.35;89.87;100930.75;5124743;28;20054;-55
2022/07/26 07:17:59;;;;;;;8.80;3.58;;;21.90;99.70;;;22.44;89.42;100933.31;5124490;29;20054;-55
2022/07/26 07:20:33;;;;;;;6.07;2.80;;;22.00;99.60;;;22.52;88.68;100932.34;5130720;28;20058;-57
2022/07/26 07:23:05;;;;;;;6.90;2.60;;;22.10;99.30;;;22.55;88.22;100926.97;5136326;28;20054;-56
2022/07/26 07:25:37;;;;;;;5.20;2.80;;;22.10;99.10;;;22.59;87.99;100936.69;5144984;28;20046;-55
2022/07/26 07:28:11;;;;;;;6.90;2.58;;;22.10;99.00;;;22.60;88.02;100946.41;5147656;28;20500;-55
2022/07/26 07:30:43;;;;;;;5.93;2.85;;;22.20;99.10;;;22.59;88.22;100945.53;5147960;28;20081;-54
2022/07/26 07:33:16;;;;;;;8.30;2.60;;;22.20;99.40;;;22.58;88.51;100942.91;5147941;28;20043;-55
2022/07/26 07:35:48;;;;;;;5.13;2.65;;;22.10;99.20;;;22.56;88.61;100949.97;5139597;28;20039;-56
2022/07/26 07:38:21;;;;;;;4.97;2.75;;;22.20;99.30;;;22.56;88.85;100950.91;5143199;28;20065;-54
2022/07/26 07:40:53;;;;;;;6.43;3.10;;;22.20;99.60;;;22.56;88.98;100955.28;5144499;28;20455;-55
2022/07/26 07:43:26;;;;;;;6.72;3.13;;;22.10;99.30;;;22.56;89.02;100949.97;5147832;28;20061;-56
2022/07/26 07:45:58;;;;;;;7.25;3.45;;;22.20;99.40;;;22.55;89.02;100958.84;5148190;28;20046;-56
2022/07/26 07:48:31;;;;;;;7.93;3.72;;;22.10;99.40;;;22.55;88.88;100958.84;5140700;28;20039;-55
2022/07/26 07:51:03;;;;;;;6.43;3.55;;;22.10;99.30;;;22.55;88.85;100953.53;5145452;28;20043;-55
2022/07/26 07:53:35;;;;;;;5.53;3.40;;;22.10;99.40;;;22.57;88.67;100963.28;5148201;28;20057;-55
2022/07/26 07:56:08;;;;;;;5.40;2.88;;;22.10;99.30;;;22.62;88.16;100955.22;5147793;28;20507;-54
2022/07/26 07:58:41;;;;;;;5.93;3.13;;;22.10;99.20;;;22.67;87.55;100964.03;5147229;28;20047;-55
2022/07/26 08:01:14;;;;;;;7.05;3.30;;;22.10;99.00;;;22.66;86.84;100952.53;5127756;28;20070;-55
2022/07/26 08:03:46;;;;;;;5.70;3.22;;;22.20;98.80;;;22.71;86.67;100960.44;5129051;28;20078;-55
2022/07/26 08:06:18;;;;;;;10.27;3.50;;;22.20;98.80;;;22.69;86.57;100960.47;5103171;28;20168;-56
2022/07/26 08:08:50;;;;;;;6.03;3.28;;;22.20;98.80;;;22.70;86.90;100953.38;5126762;29;20503;-55
2022/07/26 08:11:23;;;;;;;7.72;3.53;;;22.20;98.80;;;22.73;87.12;100953.31;5123827;29;20047;-55
2022/07/26 08:13:56;;;;;;;9.55;3.78;;;22.20;98.90;;;22.86;86.59;100949.63;5126755;29;20134;-56
2022/07/26 08:16:28;;;;;;;8.02;4.15;;;22.30;98.80;;;23.02;85.47;100956.53;5126552;28;20081;-56
2022/07/26 08:19:00;;;;;;;10.38;3.70;;;22.40;98.60;;;23.24;84.56;100953.56;5126647;29;20050;-55
2022/07/26 08:21:33;;;;;;;6.82;3.30;;;22.60;98.40;;;23.56;82.81;100953.94;5126331;28;20054;-55
2022/07/26 08:24:05;;;;;;;6.88;3.45;;;22.80;98.00;;;23.81;81.49;100954.44;5127112;29;20050;-56
2022/07/26 08:26:38;;;;;;;8.10;3.38;;;23.00;97.60;;;24.03;79.10;100954.06;5127162;28;20049;-56
2022/07/26 08:29:11;;;;;;;8.52;3.35;;;23.20;96.70;;;24.21;78.22;100952.84;5126837;29;20045;-56
2022/07/26 08:31:44;;;;;;;8.45;3.88;;;23.40;96.30;;;24.29;78.00;100953.56;5126573;29;20126;-55
2022/07/26 08:34:17;;;;;;;6.80;3.95;;;23.50;96.00;;;24.38;77.79;100956.06;5124443;28;20115;-56
2022/07/26 08:36:49;;;;;;;8.07;4.15;;;23.60;95.90;;;24.31;77.15;100959.72;5116396;28;20055;-56
2022/07/26 08:39:22;;;;;;;7.70;4.18;;;23.50;95.60;;;24.10;77.79;100961.91;5125944;28;20049;-56
2022/07/26 08:41:54;;;;;;;9.43;4.70;;;23.40;95.50;;;23.92;78.26;100967.53;5125286;29;20424;-56
2022/07/26 08:44:28;;;;;;;8.55;3.95;;;23.30;95.70;;;23.79;78.98;100956.22;5126152;29;20130;-57
2022/07/26 08:47:00;;;;;;;7.65;4.15;;;23.20;95.80;;;23.64;79.59;100966.25;5126724;29;20149;-54
2022/07/26 08:49:32;;;;;;;7.10;4.15;;;23.00;95.90;;;23.46;80.12;100970.94;5126317;29;20043;-54
2022/07/26 08:52:06;;;;;;;8.18;4.65;;;22.90;96.10;;;23.27;81.10;100972.97;5126529;29;20439;-55
2022/07/26 08:54:43;;;;;;;8.25;4.70;;;22.80;96.30;;;23.23;82.09;100976.59;5126656;28;20122;-55
2022/07/26 08:57:16;;;;;;;8.82;4.38;;;22.70;96.70;;;23.31;81.88;100973.84;5126281;29;20043;-54
2022/07/26 09:00:14;;;;;;;8.18;4.63;;;22.70;96.80;;;23.29;81.66;100975.66;5124246;29;20508;-55
2022/07/26 09:02:48;;;;;;;11.20;5.07;;;22.70;96.80;;;23.20;81.92;100971.31;5122291;29;20058;-56
2022/07/26 09:05:21;;;;;;;11.77;5.35;;;22.60;96.80;;;23.11;81.87;100975.91;5106541;29;20047;-54
2022/07/26 09:07:53;;;;;;;11.05;5.10;;;22.50;96.80;;;23.21;82.85;100969.53;5106424;29;20051;-57
2022/07/26 09:10:26;;;;;;;9.38;5.22;;;22.60;97.40;;;23.65;81.36;100976.00;5105283;29;20135;-57
2022/07/26 09:12:58;;;;;;;9.98;5.15;;;22.80;97.20;;;23.82;80.32;100981.94;5108243;29;20035;-55
2022/07/26 09:15:31;;;;;;;12.13;5.40;;;23.00;96.80;;;23.88;79.31;100987.16;5117320;29;20054;-54
2022/07/26 09:18:04;;;;;;;10.00;5.43;;;23.00;96.60;;;23.81;79.25;100988.16;5125518;28;20543;-56
2022/07/26 09:20:36;;;;;;;9.88;5.30;;;23.10;96.20;;;23.94;78.72;100989.72;5125841;29;20043;-55
2022/07/26 09:23:10;;;;;;;11.30;5.53;;;23.10;96.10;;;24.64;76.43;100983.06;5125882;29;20047;-55
2022/07/26 09:25:45;;;;;;;;;;;23.50;95.90;;;25.13;74.61;100999.88;5126266;29;20039;-55
2022/07/26 09:28:27;;;;;;;9.27;5.10;;;23.80;95.40;;;26.14;73.20;100992.09;5125577;29;19922;-56
2022/07/26 09:31:04;;;;;;;7.20;3.95;;;24.50;95.20;;;27.27;69.74;100989.81;5125644;28;20055;-56
2022/07/26 09:33:44;;;;;;;9.10;4.30;;;25.40;94.10;;;27.88;65.69;100981.59;5125702;29;20082;-55
2022/07/26 09:36:18;;;;;;;7.20;3.60;;;26.00;92.00;;;27.96;65.72;100984.00;5125647;29;20050;-57
2022/07/26 09:38:53;;;;;;;9.52;4.63;;;26.40;91.10;;;27.52;65.13;100983.69;5125501;29;20055;-56
2022/07/26 09:41:30;;;;;;;7.82;4.15;;;26.30;90.10;;;26.80;65.77;100988.53;5123182;29;20043;-55
2022/07/26 09:44:05;;;;;;;7.47;3.90;;;25.90;89.40;;;26.40;67.25;100994.13;5123393;29;20043;-55
2022/07/26 09:46:53;;;;;;;16.23;6.55;;;25.70;90.00;;;26.15;67.48;100989.44;5125754;28;20496;-56
2022/07/26 09:49:26;;;;;;;12.05;5.25;;;25.40;89.70;;;25.68;68.02;100988.78;5124469;28;20057;-54
2022/07/26 09:51:58;;;;;;;17.80;7.95;;;25.10;89.80;;;25.30;70.12;100991.47;5125464;29;20415;-55
2022/07/26 09:54:35;;;;;;;13.23;5.90;;;24.70;90.60;;;25.39;71.75;100991.28;5125596;29;20142;-55
2022/07/26 09:57:07;;;;;;;9.77;5.45;;;24.70;91.50;;;25.67;71.50;100991.50;5125493;29;20075;-55
2022/07/26 09:59:40;;;;;;;10.15;4.50;;;24.80;91.70;;;25.86;71.17;100986.63;5125324;29;20043;-57
2022/07/26 10:02:14;;;;;;;14.77;5.85;;;25.00;91.60;;;26.04;70.66;100996.84;5125106;29;20043;-56
2022/07/26 10:04:46;;;;;;;;;;;25.10;91.40;;;25.92;69.93;100992.69;5125725;29;20488;-55
2022/07/26 10:07:18;;;;;;;9.15;4.70;;;25.20;90.90;;;25.92;69.91;100999.81;5125046;29;19923;-57
2022/07/26 10:09:57;;;;;;;9.40;4.57;;;25.20;90.80;;;26.28;69.10;100998.00;5125397;29;20039;-56
2022/07/26 10:12:32;;;;;;;8.60;3.97;;;25.40;90.70;;;26.60;66.56;100991.75;5125314;29;20051;-55
2022/07/26 10:15:06;;;;;;;6.80;3.70;;;25.60;89.50;;;26.72;66.10;101002.09;5125203;29;20047;-55
2022/07/26 10:17:43;;;;;;;6.47;3.92;;;25.70;88.50;;;26.57;65.20;100999.88;5124824;28;20065;-55
2022/07/26 10:20:44;;;;;;;4.82;3.50;;;25.70;87.00;;;26.56;66.11;100989.25;5234137;23;20048;-83
2022/07/26 10:23:45;;;;;;;7.55;3.30;;;25.70;87.70;;;26.50;65.42;100990.28;5228641;28;20060;-82
2022/07/26 10:26:39;;;;;;;7.78;3.80;;;25.70;86.70;;;26.20;64.99;100987.47;5234410;28;20046;-84
2022/07/26 10:29:25;;;;;;;7.32;3.45;;;25.50;85.90;;;25.84;66.18;100994.66;5207813;28;20046;-84
2022/07/26 10:32:19;;;;;;;4.85;3.10;;;25.30;86.50;;;25.75;66.91;100983.31;5184181;28;20054;-84
2022/07/26 10:34:53;;;;;;;4.68;2.60;;;25.10;87.00;;;25.94;65.92;100989.97;5188097;28;20054;-85
2022/07/26 10:37:28;;;;;;;5.47;2.70;;;25.10;86.60;;;25.94;64.83;100995.28;5192657;28;20053;-85
2022/07/26 10:40:24;;;;;;;4.72;3.45;;;25.20;85.50;;;25.80;65.55;100992.97;5187132;28;20467;-84